createdAt,value
2023-04-07T00:00:38.826Z,96568.81
2023-04-07T00:01:40.596Z,96576.69
2023-04-07T00:02:44.577Z,96574.59
2023-04-07T00:03:46.623Z,96575.88
2023-04-07T00:04:48.303Z,96573.97
2023-04-07T00:05:49.861Z,96577.38
2023-04-07T00:06:51.409Z,96580.16
2023-04-07T00:07:57.102Z,96578.38
2023-04-07T00:08:59.074Z,96581.16
2023-04-07T00:10:00.640Z,96583.22
2023-04-07T00:11:02.258Z,96582.16
2023-04-07T00:12:04.697Z,96576.22
2023-04-07T00:13:06.219Z,96568.75
2023-04-07T00:14:07.936Z,96575.63
2023-04-07T00:15:09.919Z,96584.69
2023-04-07T00:16:11.491Z,96581.34
2023-04-07T00:17:13.011Z,96586.06
2023-04-07T00:18:14.581Z,96580.75
2023-04-07T00:19:16.769Z,96577.03
2023-04-07T00:20:18.395Z,96577.41
2023-04-07T00:21:19.911Z,96586.56
2023-04-07T00:22:22.273Z,96579.78
2023-04-07T00:23:23.800Z,96579.63
2023-04-07T00:24:33.781Z,96585.31
2023-04-07T00:25:35.627Z,96581.59
2023-04-07T00:26:37.158Z,96576.88
2023-04-07T00:27:38.736Z,96581.59
2023-04-07T00:28:40.295Z,96576.88
2023-04-07T00:29:43.825Z,96581.22
2023-04-07T00:30:45.371Z,96577.88
2023-04-07T00:31:46.999Z,96582.69
2023-04-07T00:32:48.653Z,96579.94
2023-04-07T00:33:50.352Z,96581.03
2023-04-07T00:34:51.920Z,96574.16
2023-04-07T00:35:54.484Z,96576.22
2023-04-07T00:36:56.225Z,96583.06
2023-04-07T00:37:58.068Z,96572.19
2023-04-07T00:38:59.639Z,96572.56
2023-04-07T00:40:01.292Z,96582.72
2023-04-07T00:41:02.901Z,96569.34
2023-04-07T00:42:08.308Z,96578.69
2023-04-07T00:43:09.900Z,96578.38
2023-04-07T00:44:12.014Z,96580.94
2023-04-07T00:45:13.529Z,96579.84
2023-04-07T00:46:15.345Z,96582.03
2023-04-07T00:47:17.033Z,96587.91
2023-04-07T00:48:18.605Z,96577.28
2023-04-07T00:49:20.113Z,96582.41
2023-04-07T00:50:21.996Z,96579.94
2023-04-07T00:51:23.591Z,96580.25
2023-04-07T00:52:28.999Z,96586.63
2023-04-07T00:53:30.667Z,96583.97
2023-04-07T00:54:32.694Z,96587.41
2023-04-07T00:55:34.341Z,96586.25
2023-04-07T00:56:35.906Z,96588.69
2023-04-07T00:57:37.913Z,96586.25
2023-04-07T00:58:39.568Z,96585.13
2023-04-07T00:59:41.113Z,96577.97
2023-04-07T01:01:13.672Z,96578.97
2023-04-07T01:02:29.389Z,96581.03
2023-04-07T01:03:36.597Z,96580.72
2023-04-07T01:04:41.666Z,96589.66
2023-04-07T01:05:54.950Z,96585.94
2023-04-07T01:07:04.053Z,96588.19
2023-04-07T01:08:12.918Z,96583.94
2023-04-07T01:09:21.698Z,96585.81
2023-04-07T01:10:50.049Z,96589.75
2023-04-07T01:12:07.898Z,96583.97
2023-04-07T01:13:22.498Z,96587.91
2023-04-07T01:14:25.590Z,96592.44
2023-04-07T01:15:30.822Z,96588.47
2023-04-07T01:16:37.602Z,96582.91
2023-04-07T01:17:59.902Z,96586.53
2023-04-07T01:19:15.891Z,96586.53
2023-04-07T01:20:21.247Z,96591.25
2023-04-07T01:21:28.734Z,96595.00
2023-04-07T01:22:40.277Z,96589.69
2023-04-07T01:24:06.432Z,96590.75
2023-04-07T01:25:26.706Z,96586.16
2023-04-07T01:26:30.693Z,96589.50
2023-04-07T01:27:50.957Z,96595.78
2023-04-07T01:29:11.625Z,96590.84
2023-04-07T01:30:16.076Z,96588.75
2023-04-07T01:31:17.707Z,96593.38
2023-04-07T01:32:24.190Z,96591.50
2023-04-07T01:33:32.241Z,96588.88
2023-04-07T01:34:35.210Z,96591.31
2023-04-07T01:35:37.596Z,96590.59
2023-04-07T01:36:39.756Z,96595.78
2023-04-07T01:37:42.714Z,96591.38
2023-04-07T01:38:45.664Z,96595.81
2023-04-07T01:39:47.219Z,96594.53
2023-04-07T01:40:49.595Z,96592.00
2023-04-07T01:41:53.337Z,96592.78
2023-04-07T01:42:57.230Z,96587.97
2023-04-07T01:44:01.051Z,96592.28
2023-04-07T01:45:04.386Z,96593.31
2023-04-07T01:46:06.095Z,96596.06
2023-04-07T01:47:08.329Z,96588.44
2023-04-07T01:48:10.932Z,96580.06
2023-04-07T01:49:14.051Z,96583.88
2023-04-07T01:50:17.016Z,96585.94
2023-04-07T01:51:21.699Z,96586.53
2023-04-07T01:52:23.525Z,96585.66
2023-04-07T01:53:26.041Z,96592.50
2023-04-07T01:54:28.815Z,96586.44
2023-04-07T01:55:31.067Z,96594.09
2023-04-07T01:56:33.149Z,96591.03
2023-04-07T01:57:34.658Z,96592.66
2023-04-07T01:58:36.434Z,96588.94
2023-04-07T01:59:37.933Z,96592.13
2023-04-07T02:00:39.793Z,96592.78
2023-04-07T02:01:41.621Z,96594.38
2023-04-07T02:02:46.663Z,96597.91
2023-04-07T02:03:56.481Z,96587.53
2023-04-07T02:05:05.832Z,96588.47
2023-04-07T02:06:10.472Z,96589.63
2023-04-07T02:07:39.865Z,96590.22
2023-04-07T02:08:48.294Z,96595.88
2023-04-07T02:09:51.557Z,96590.06
2023-04-07T02:10:55.275Z,96589.59
2023-04-07T02:12:00.069Z,96590.47
2023-04-07T02:13:05.157Z,96598.72
2023-04-07T02:14:09.092Z,96593.16
2023-04-07T02:15:12.693Z,96599.66
2023-04-07T02:16:16.528Z,96597.94
2023-04-07T02:17:19.056Z,96595.56
2023-04-07T02:18:21.592Z,96593.78
2023-04-07T02:19:23.285Z,96593.22
2023-04-07T02:20:25.519Z,96580.94
2023-04-07T02:21:28.322Z,96587.31
2023-04-07T02:22:31.009Z,96590.47
2023-04-07T02:23:35.925Z,96590.84
2023-04-07T02:24:37.433Z,96591.13
2023-04-07T02:25:39.073Z,96591.44
2023-04-07T02:26:41.863Z,96588.69
2023-04-07T02:27:43.387Z,96589.53
2023-04-07T02:28:44.914Z,96587.28
2023-04-07T02:29:46.638Z,96586.88
2023-04-07T02:30:48.180Z,96589.13
2023-04-07T02:31:49.768Z,96585.28
2023-04-07T02:32:51.849Z,96589.38
2023-04-07T02:33:53.569Z,96573.34
2023-04-07T02:34:55.481Z,96584.94
2023-04-07T02:35:57.009Z,96583.25
2023-04-07T02:36:58.573Z,96586.41
2023-04-07T02:38:00.175Z,96582.06
2023-04-07T02:39:01.707Z,96580.69
2023-04-07T02:40:03.973Z,96584.59
2023-04-07T02:41:06.650Z,96586.53
2023-04-07T02:42:08.211Z,96587.22
2023-04-07T02:43:10.405Z,96583.16
2023-04-07T02:44:11.927Z,96586.31
2023-04-07T02:45:13.483Z,96592.09
2023-04-07T02:46:16.496Z,96580.50
2023-04-07T02:47:18.309Z,96586.09
2023-04-07T02:48:19.861Z,96586.31
2023-04-07T02:49:21.372Z,96587.25
2023-04-07T02:50:22.893Z,96582.28
2023-04-07T02:51:24.578Z,96587.59
2023-04-07T02:52:26.281Z,96582.78
2023-04-07T02:53:27.855Z,96590.75
2023-04-07T02:54:29.385Z,96585.06
2023-04-07T02:55:30.926Z,96583.16
2023-04-07T02:56:32.745Z,96582.19
2023-04-07T02:57:34.492Z,96583.28
2023-04-07T02:58:36.077Z,96583.16
2023-04-07T02:59:37.612Z,96582.06
2023-04-07T03:00:39.211Z,96584.97
2023-04-07T03:01:41.000Z,96591.72
2023-04-07T03:02:42.830Z,96591.31
2023-04-07T03:03:45.317Z,96591.47
2023-04-07T03:04:46.973Z,96586.22
2023-04-07T03:05:48.544Z,96594.75
2023-04-07T03:06:50.112Z,96592.00
2023-04-07T03:07:51.637Z,96594.53
2023-04-07T03:08:53.200Z,96589.22
2023-04-07T03:09:54.743Z,96600.16
2023-04-07T03:10:56.405Z,96596.09
2023-04-07T03:11:58.375Z,96598.16
2023-04-07T03:12:59.959Z,96598.38
2023-04-07T03:14:01.544Z,96596.03
2023-04-07T03:15:03.210Z,96598.78
2023-04-07T03:16:04.872Z,96601.16
2023-04-07T03:17:06.892Z,96596.25
2023-04-07T03:18:08.610Z,96601.06
2023-04-07T03:19:10.295Z,96602.44
2023-04-07T03:20:12.134Z,96593.81
2023-04-07T03:21:13.764Z,96597.94
2023-04-07T03:22:15.354Z,96605.28
2023-04-07T03:23:17.110Z,96600.66
2023-04-07T03:24:18.773Z,96601.63
2023-04-07T03:25:20.367Z,96612.13
2023-04-07T03:26:21.880Z,96610.00
2023-04-07T03:27:23.428Z,96605.16
2023-04-07T03:28:24.949Z,96608.88
2023-04-07T03:29:26.576Z,96599.47
2023-04-07T03:30:28.135Z,96614.91
2023-04-07T03:31:30.516Z,96604.78
2023-04-07T03:32:32.124Z,96603.69
2023-04-07T03:33:33.802Z,96607.44
2023-04-07T03:34:35.657Z,96607.34
2023-04-07T03:35:37.285Z,96606.56
2023-04-07T03:36:38.841Z,96610.09
2023-04-07T03:37:40.838Z,96610.91
2023-04-07T03:38:42.406Z,96611.78
2023-04-07T03:39:44.118Z,96603.63
2023-04-07T03:40:46.064Z,96610.16
2023-04-07T03:41:47.685Z,96610.78
2023-04-07T03:42:49.218Z,96614.63
2023-04-07T03:43:51.351Z,96615.19
2023-04-07T03:44:53.439Z,96620.28
2023-04-07T03:45:55.028Z,96608.00
2023-04-07T03:46:56.547Z,96612.41
2023-04-07T03:47:58.160Z,96617.69
2023-04-07T03:48:59.733Z,96618.69
2023-04-07T03:50:01.313Z,96613.97
2023-04-07T03:51:02.977Z,96619.25
2023-04-07T03:52:05.334Z,96621.97
2023-04-07T03:53:07.768Z,96620.97
2023-04-07T03:54:09.306Z,96619.66
2023-04-07T03:55:11.073Z,96620.44
2023-04-07T03:56:14.516Z,96624.13
2023-04-07T03:57:17.305Z,96630.47
2023-04-07T03:58:19.324Z,96632.03
2023-04-07T03:59:21.613Z,96624.66
2023-04-07T04:00:25.318Z,96631.53
2023-04-07T04:01:31.208Z,96632.06
2023-04-07T04:02:33.332Z,96637.94
2023-04-07T04:03:36.465Z,96630.28
2023-04-07T04:04:41.381Z,96640.06
2023-04-07T04:05:42.931Z,96634.22
2023-04-07T04:06:44.462Z,96636.28
2023-04-07T04:07:46.008Z,96640.97
2023-04-07T04:08:48.898Z,96640.88
2023-04-07T04:09:50.460Z,96631.34
2023-04-07T04:10:52.236Z,96630.84
2023-04-07T04:11:53.765Z,96638.03
2023-04-07T04:12:55.716Z,96633.81
2023-04-07T04:13:58.971Z,96639.28
2023-04-07T04:15:00.686Z,96636.00
2023-04-07T04:16:03.307Z,96635.97
2023-04-07T04:17:05.602Z,96642.75
2023-04-07T04:18:08.968Z,96642.72
2023-04-07T04:19:10.904Z,96636.97
2023-04-07T04:20:13.530Z,96649.50
2023-04-07T04:21:15.351Z,96650.41
2023-04-07T04:22:17.396Z,96648.97
2023-04-07T04:23:18.918Z,96646.53
2023-04-07T04:24:20.662Z,96645.81
2023-04-07T04:25:22.385Z,96647.94
2023-04-07T04:26:26.164Z,96645.50
2023-04-07T04:27:28.207Z,96650.84
2023-04-07T04:28:30.120Z,96651.16
2023-04-07T04:29:32.916Z,96650.63
2023-04-07T04:30:34.648Z,96653.56
2023-04-07T04:31:36.341Z,96657.50
2023-04-07T04:32:38.351Z,96659.69
2023-04-07T04:33:39.942Z,96656.56
2023-04-07T04:34:42.226Z,96662.28
2023-04-07T04:35:45.373Z,96654.28
2023-04-07T04:36:49.158Z,96655.81
2023-04-07T04:37:51.154Z,96659.63
2023-04-07T04:38:52.704Z,96656.56
2023-04-07T04:39:54.236Z,96658.72
2023-04-07T04:40:55.784Z,96657.78
2023-04-07T04:41:57.482Z,96657.44
2023-04-07T04:42:59.006Z,96670.03
2023-04-07T04:44:00.592Z,96664.00
2023-04-07T04:45:02.120Z,96660.13
2023-04-07T04:46:03.757Z,96663.88
2023-04-07T04:47:05.518Z,96661.28
2023-04-07T04:48:07.267Z,96663.88
2023-04-07T04:49:08.842Z,96668.00
2023-04-07T04:50:11.142Z,96662.56
2023-04-07T04:51:12.685Z,96658.13
2023-04-07T04:52:14.248Z,96660.00
2023-04-07T04:53:15.923Z,96664.47
2023-04-07T04:54:19.282Z,96669.03
2023-04-07T04:55:21.015Z,96674.34
2023-04-07T04:56:22.614Z,96669.34
2023-04-07T04:57:24.306Z,96674.19
2023-04-07T04:58:26.433Z,96673.38
2023-04-07T04:59:28.101Z,96672.91
2023-04-07T05:00:29.723Z,96667.84
2023-04-07T05:01:33.345Z,96671.88
2023-04-07T05:02:35.710Z,96670.41
2023-04-07T05:03:37.623Z,96672.06
2023-04-07T05:04:39.462Z,96674.31
2023-04-07T05:05:41.300Z,96677.81
2023-04-07T05:06:42.814Z,96676.03
2023-04-07T05:07:44.407Z,96675.78
2023-04-07T05:08:46.236Z,96665.34
2023-04-07T05:09:47.764Z,96669.44
2023-04-07T05:10:49.357Z,96671.81
2023-04-07T05:11:50.931Z,96674.47
2023-04-07T05:12:52.558Z,96678.72
2023-04-07T05:13:54.395Z,96675.56
2023-04-07T05:14:56.076Z,96676.19
2023-04-07T05:15:57.775Z,96672.44
2023-04-07T05:17:00.876Z,96677.75
2023-04-07T05:18:02.720Z,96681.59
2023-04-07T05:19:04.515Z,96683.75
2023-04-07T05:20:06.857Z,96678.34
2023-04-07T05:21:08.386Z,96684.25
2023-04-07T05:22:09.943Z,96688.97
2023-04-07T05:23:11.552Z,96688.19
2023-04-07T05:24:13.063Z,96692.91
2023-04-07T05:25:14.591Z,96683.66
2023-04-07T05:26:16.236Z,96683.75
2023-04-07T05:27:17.730Z,96684.84
2023-04-07T05:28:19.532Z,96681.44
2023-04-07T05:29:21.241Z,96683.72
2023-04-07T05:30:22.840Z,96681.75
2023-04-07T05:31:24.430Z,96684.00
2023-04-07T05:32:28.089Z,96679.53
2023-04-07T05:33:29.824Z,96679.97
2023-04-07T05:34:31.373Z,96679.34
2023-04-07T05:35:32.919Z,96684.69
2023-04-07T05:36:35.406Z,96679.38
2023-04-07T05:37:36.951Z,96684.97
2023-04-07T05:38:38.514Z,96684.69
2023-04-07T05:39:40.052Z,96679.28
2023-04-07T05:40:41.594Z,96676.31
2023-04-07T05:41:43.186Z,96687.31
2023-04-07T05:42:44.794Z,96681.81
2023-04-07T05:43:46.360Z,96686.16
2023-04-07T05:44:47.963Z,96680.44
2023-04-07T05:45:49.580Z,96683.19
2023-04-07T05:46:51.164Z,96684.66
2023-04-07T05:47:52.852Z,96690.09
2023-04-07T05:48:54.492Z,96685.88
2023-04-07T05:49:56.140Z,96683.91
2023-04-07T05:50:58.142Z,96687.16
2023-04-07T05:51:59.732Z,96682.94
2023-04-07T05:53:01.436Z,96677.50
2023-04-07T05:54:06.483Z,96689.00
2023-04-07T05:55:08.484Z,96679.59
2023-04-07T05:56:10.261Z,96677.09
2023-04-07T05:57:11.895Z,96681.72
2023-04-07T05:58:13.442Z,96681.25
2023-04-07T05:59:15.036Z,96684.38
2023-04-07T06:00:16.833Z,96677.28
2023-04-07T06:01:18.408Z,96684.66
2023-04-07T06:02:20.169Z,96682.59
2023-04-07T06:03:21.845Z,96679.59
2023-04-07T06:04:23.528Z,96681.03
2023-04-07T06:05:25.581Z,96684.19
2023-04-07T06:06:27.793Z,96680.84
2023-04-07T06:07:29.362Z,96686.16
2023-04-07T06:08:30.974Z,96685.66
2023-04-07T06:09:32.540Z,96686.34
2023-04-07T06:10:34.062Z,96685.16
2023-04-07T06:11:35.901Z,96678.47
2023-04-07T06:12:37.420Z,96669.81
2023-04-07T06:13:39.006Z,96674.53
2023-04-07T06:14:40.634Z,96675.69
2023-04-07T06:15:42.219Z,96674.59
2023-04-07T06:16:43.977Z,96676.06
2023-04-07T06:17:45.959Z,96677.81
2023-04-07T06:18:47.626Z,96668.91
2023-04-07T06:19:49.298Z,96680.50
2023-04-07T06:20:50.965Z,96668.88
2023-04-07T06:21:52.535Z,96673.03
2023-04-07T06:22:55.057Z,96672.34
2023-04-07T06:23:56.659Z,96672.16
2023-04-07T06:24:58.219Z,96666.41
2023-04-07T06:25:59.779Z,96678.25
2023-04-07T06:27:02.154Z,96669.41
2023-04-07T06:28:03.739Z,96678.34
2023-04-07T06:29:06.015Z,96673.72
2023-04-07T06:30:08.383Z,96671.91
2023-04-07T06:31:10.014Z,96677.59
2023-04-07T06:32:12.653Z,96667.25
2023-04-07T06:33:14.230Z,96666.78
2023-04-07T06:34:16.564Z,96669.13
2023-04-07T06:35:18.143Z,96662.25
2023-04-07T06:36:21.211Z,96668.38
2023-04-07T06:37:25.060Z,96666.41
2023-04-07T06:38:26.688Z,96663.84
2023-04-07T06:39:28.509Z,96661.44
2023-04-07T06:40:30.055Z,96669.22
2023-04-07T06:41:31.839Z,96663.66
2023-04-07T06:42:33.404Z,96665.78
2023-04-07T06:43:34.939Z,96667.59
2023-04-07T06:44:36.505Z,96659.94
2023-04-07T06:45:38.522Z,96659.13
2023-04-07T06:46:41.781Z,96663.19
2023-04-07T06:47:43.505Z,96663.84
2023-04-07T06:48:46.376Z,96656.81
2023-04-07T06:49:47.927Z,96657.09
2023-04-07T06:50:50.127Z,96661.97
2023-04-07T06:51:51.725Z,96665.25
2023-04-07T06:52:53.276Z,96651.34
2023-04-07T06:53:54.874Z,96654.09
2023-04-07T06:54:56.436Z,96661.78
2023-04-07T06:56:11.998Z,96654.31
2023-04-07T06:57:13.743Z,96652.56
2023-04-07T06:58:15.677Z,96654.13
2023-04-07T06:59:17.266Z,96662.38
2023-04-07T07:00:19.204Z,96655.25
2023-04-07T07:01:20.908Z,96654.13
2023-04-07T07:02:22.599Z,96657.50
2023-04-07T07:03:25.856Z,96658.63
2023-04-07T07:04:27.772Z,96659.13
2023-04-07T07:05:29.492Z,96657.00
2023-04-07T07:06:31.808Z,96661.53
2023-04-07T07:07:33.306Z,96652.00
2023-04-07T07:08:35.218Z,96659.88
2023-04-07T07:09:37.157Z,96649.94
2023-04-07T07:10:38.695Z,96661.44
2023-04-07T07:11:40.649Z,96658.78
2023-04-07T07:12:42.144Z,96661.22
2023-04-07T07:13:45.049Z,96659.44
2023-04-07T07:14:46.553Z,96661.44
2023-04-07T07:15:48.756Z,96659.00
2023-04-07T07:16:50.651Z,96652.91
2023-04-07T07:17:52.219Z,96662.41
2023-04-07T07:18:53.807Z,96657.94
2023-04-07T07:19:55.621Z,96660.81
2023-04-07T07:20:57.188Z,96653.88
2023-04-07T07:21:58.775Z,96652.53
2023-04-07T07:23:00.374Z,96660.72
2023-04-07T07:24:01.948Z,96659.59
2023-04-07T07:25:03.940Z,96655.50
2023-04-07T07:26:05.567Z,96651.38
2023-04-07T07:27:07.141Z,96646.94
2023-04-07T07:28:09.680Z,96654.59
2023-04-07T07:29:11.331Z,96656.00
2023-04-07T07:30:13.184Z,96653.28
2023-04-07T07:31:15.832Z,96648.63
2023-04-07T07:32:17.524Z,96644.53
2023-04-07T07:33:19.148Z,96653.50
2023-04-07T07:34:20.790Z,96649.75
2023-04-07T07:35:22.913Z,96650.56
2023-04-07T07:36:24.493Z,96645.09
2023-04-07T07:37:26.038Z,96648.66
2023-04-07T07:38:27.702Z,96650.13
2023-04-07T07:39:29.963Z,96646.75
2023-04-07T07:40:31.692Z,96641.09
2023-04-07T07:41:33.302Z,96643.00
2023-04-07T07:42:34.827Z,96643.50
2023-04-07T07:43:37.251Z,96645.22
2023-04-07T07:44:38.846Z,96634.66
2023-04-07T07:45:40.402Z,96647.91
2023-04-07T07:46:42.036Z,96648.88
2023-04-07T07:47:43.747Z,96648.09
2023-04-07T07:48:46.638Z,96650.84
2023-04-07T07:49:48.229Z,96646.03
2023-04-07T07:50:50.717Z,96650.44
2023-04-07T07:51:53.151Z,96648.81
2023-04-07T07:52:54.765Z,96649.44
2023-04-07T07:53:56.608Z,96652.59
2023-04-07T07:54:58.290Z,96644.88
2023-04-07T07:56:00.138Z,96648.16
2023-04-07T07:57:03.111Z,96643.88
2023-04-07T07:58:04.642Z,96642.66
2023-04-07T07:59:09.244Z,96642.81
2023-04-07T08:00:11.482Z,96640.50
2023-04-07T08:01:13.044Z,96645.72
2023-04-07T08:02:14.784Z,96643.06
2023-04-07T08:03:17.229Z,96640.53
2023-04-07T08:04:18.998Z,96639.91
2023-04-07T08:05:20.944Z,96641.94
2023-04-07T08:06:22.504Z,96634.50
2023-04-07T08:07:24.780Z,96639.88
2023-04-07T08:08:26.405Z,96637.13
2023-04-07T08:09:27.964Z,96641.13
2023-04-07T08:10:29.608Z,96634.66
2023-04-07T08:11:31.136Z,96634.31
2023-04-07T08:12:32.671Z,96634.59
2023-04-07T08:13:34.352Z,96635.09
2023-04-07T08:14:36.048Z,96631.19
2023-04-07T08:15:37.756Z,96636.66
2023-04-07T08:16:39.409Z,96634.63
2023-04-07T08:17:41.176Z,96637.63
2023-04-07T08:18:42.740Z,96640.41
2023-04-07T08:19:44.341Z,96644.13
2023-04-07T08:20:46.797Z,96635.72
2023-04-07T08:21:48.308Z,96630.66
2023-04-07T08:22:49.872Z,96637.50
2023-04-07T08:23:51.517Z,96632.09
2023-04-07T08:24:53.048Z,96628.34
2023-04-07T08:25:54.608Z,96632.72
2023-04-07T08:26:56.555Z,96633.13
2023-04-07T08:27:58.082Z,96626.94
2023-04-07T08:28:59.672Z,96629.91
2023-04-07T08:30:03.842Z,96631.31
2023-04-07T08:31:05.667Z,96629.53
2023-04-07T08:32:07.317Z,96626.72
2023-04-07T08:33:08.899Z,96630.38
2023-04-07T08:34:10.688Z,96625.91
2023-04-07T08:35:12.533Z,96624.22
2023-04-07T08:36:14.126Z,96626.59
2023-04-07T08:37:15.711Z,96625.91
2023-04-07T08:38:17.642Z,96624.47
2023-04-07T08:39:19.649Z,96621.94
2023-04-07T08:40:21.479Z,96619.94
2023-04-07T08:41:40.965Z,96620.13
2023-04-07T08:42:52.733Z,96624.19
2023-04-07T08:43:54.392Z,96614.38
2023-04-07T08:45:00.176Z,96617.69
2023-04-07T08:46:02.842Z,96622.97
2023-04-07T08:47:08.574Z,96620.00
2023-04-07T08:48:17.836Z,96614.75
2023-04-07T08:49:21.305Z,96616.47
2023-04-07T08:50:26.331Z,96615.81
2023-04-07T08:51:32.459Z,96620.53
2023-04-07T08:52:46.210Z,96617.19
2023-04-07T08:53:50.498Z,96618.03
2023-04-07T08:54:53.327Z,96610.06
2023-04-07T08:55:57.202Z,96615.81
2023-04-07T08:56:58.857Z,96608.00
2023-04-07T08:58:02.149Z,96603.16
2023-04-07T08:59:06.480Z,96613.97
2023-04-07T09:00:09.264Z,96612.13
2023-04-07T09:01:11.639Z,96610.41
2023-04-07T09:02:14.565Z,96611.34
2023-04-07T09:03:17.928Z,96610.06
2023-04-07T09:04:19.661Z,96609.63
2023-04-07T09:05:21.753Z,96600.53
2023-04-07T09:06:23.907Z,96613.09
2023-04-07T09:07:25.694Z,96616.50
2023-04-07T09:08:27.326Z,96615.47
2023-04-07T09:09:29.625Z,96605.59
2023-04-07T09:10:31.406Z,96609.03
2023-04-07T09:11:37.261Z,96612.31
2023-04-07T09:12:38.979Z,96608.06
2023-04-07T09:13:40.638Z,96611.44
2023-04-07T09:14:42.309Z,96621.31
2023-04-07T09:15:44.164Z,96613.06
2023-04-07T09:16:46.295Z,96606.03
2023-04-07T09:17:48.154Z,96602.22
2023-04-07T09:18:50.001Z,96603.56
2023-04-07T09:19:53.094Z,96598.88
2023-04-07T09:21:04.520Z,96604.28
2023-04-07T09:22:06.478Z,96599.47
2023-04-07T09:23:08.502Z,96598.06
2023-04-07T09:24:24.855Z,96600.50
2023-04-07T09:25:30.279Z,96605.31
2023-04-07T09:26:31.951Z,96593.13
2023-04-07T09:27:33.465Z,96600.22
2023-04-07T09:28:42.288Z,96599.13
2023-04-07T09:29:46.318Z,96593.81
2023-04-07T09:30:54.725Z,96594.25
2023-04-07T09:31:57.779Z,96596.09
2023-04-07T09:33:00.975Z,96592.28
2023-04-07T09:34:05.270Z,96589.88
2023-04-07T09:35:07.492Z,96587.28
2023-04-07T09:36:09.176Z,96587.28
2023-04-07T09:37:22.587Z,96582.50
2023-04-07T09:38:33.558Z,96588.78
2023-04-07T09:39:52.047Z,96579.69
2023-04-07T09:41:07.687Z,96588.31
2023-04-07T09:42:09.332Z,96586.59
2023-04-07T09:43:17.079Z,96581.34
2023-04-07T09:44:19.717Z,96573.81
2023-04-07T09:46:33.902Z,96578.97
2023-04-07T09:47:35.540Z,96589.28
2023-04-07T09:48:37.193Z,96581.38
2023-04-07T09:49:54.890Z,96575.22
2023-04-07T09:51:08.196Z,96580.59
2023-04-07T09:52:11.084Z,96585.16
2023-04-07T09:53:12.610Z,96580.28
2023-04-07T09:54:23.254Z,96575.81
2023-04-07T09:55:24.899Z,96579.91
2023-04-07T09:56:27.137Z,96580.59
2023-04-07T09:57:28.841Z,96582.19
2023-04-07T09:58:30.622Z,96584.78
2023-04-07T09:59:33.734Z,96576.69
2023-04-07T10:00:35.947Z,96579.94
2023-04-07T10:01:38.296Z,96584.69
2023-04-07T10:02:40.552Z,96581.84
2023-04-07T10:03:42.695Z,96577.53
2023-04-07T10:04:44.790Z,96576.63
2023-04-07T10:05:46.960Z,96579.59
2023-04-07T10:06:49.172Z,96578.19
2023-04-07T10:07:51.540Z,96585.28
2023-04-07T10:08:53.173Z,96578.66
2023-04-07T10:09:54.796Z,96579.69
2023-04-07T10:10:57.483Z,96569.44
2023-04-07T10:11:59.946Z,96578.38
2023-04-07T10:13:05.171Z,96578.13
2023-04-07T10:14:07.208Z,96580.72
2023-04-07T10:15:12.165Z,96576.38
2023-04-07T10:16:13.910Z,96571.13
2023-04-07T10:17:19.323Z,96579.09
2023-04-07T10:18:21.336Z,96577.13
2023-04-07T10:19:24.407Z,96568.06
2023-04-07T10:20:26.981Z,96578.34
2023-04-07T10:21:29.043Z,96569.97
2023-04-07T10:22:33.376Z,96568.41
2023-04-07T10:23:43.858Z,96571.50
2023-04-07T10:25:03.650Z,96567.44
2023-04-07T10:26:08.131Z,96565.09
2023-04-07T10:27:14.162Z,96572.19
2023-04-07T10:28:18.023Z,96567.19
2023-04-07T10:29:21.094Z,96568.69
2023-04-07T10:30:31.019Z,96565.28
2023-04-07T10:31:33.425Z,96567.13
2023-04-07T10:32:47.822Z,96564.47
2023-04-07T10:33:51.605Z,96566.34
2023-04-07T10:34:53.730Z,96554.44
2023-04-07T10:36:06.192Z,96563.84
2023-04-07T10:37:14.823Z,96568.81
2023-04-07T10:38:18.475Z,96567.63
2023-04-07T10:39:20.812Z,96563.72
2023-04-07T10:40:22.302Z,96557.47
2023-04-07T10:41:41.480Z,96561.28
2023-04-07T10:42:42.947Z,96559.75
2023-04-07T10:43:45.163Z,96560.63
2023-04-07T10:44:48.868Z,96562.53
2023-04-07T10:45:52.282Z,96562.34
2023-04-07T10:46:53.809Z,96566.38
2023-04-07T10:47:58.535Z,96567.91
2023-04-07T10:49:10.285Z,96563.53
2023-04-07T10:50:19.492Z,96558.38
2023-04-07T10:51:21.199Z,96563.41
2023-04-07T10:52:24.281Z,96558.34
2023-04-07T10:53:25.822Z,96555.72
2023-04-07T10:54:29.363Z,96545.34
2023-04-07T10:55:38.187Z,96554.13
2023-04-07T10:57:14.759Z,96550.81
2023-04-07T10:58:32.068Z,96548.66
2023-04-07T10:59:34.688Z,96551.44
2023-04-07T11:00:36.371Z,96546.66
2023-04-07T11:01:38.241Z,96548.09
2023-04-07T11:02:40.727Z,96539.63
2023-04-07T11:03:53.769Z,96543.38
2023-04-07T11:04:55.484Z,96541.66
2023-04-07T11:06:04.974Z,96539.19
2023-04-07T11:07:07.305Z,96542.94
2023-04-07T11:08:09.167Z,96538.34
2023-04-07T11:09:19.409Z,96531.88
2023-04-07T11:10:22.232Z,96537.97
2023-04-07T11:11:38.825Z,96534.56
2023-04-07T11:12:40.465Z,96532.09
2023-04-07T11:13:42.521Z,96536.22
2023-04-07T11:14:44.156Z,96537.72
2023-04-07T11:15:51.272Z,96531.75
2023-04-07T11:16:53.568Z,96536.16
2023-04-07T11:18:12.002Z,96536.03
2023-04-07T11:19:13.580Z,96528.47
2023-04-07T11:20:15.575Z,96526.28
2023-04-07T11:21:20.227Z,96524.16
2023-04-07T11:22:30.011Z,96521.06
2023-04-07T11:23:40.106Z,96521.03
2023-04-07T11:24:41.894Z,96525.91
2023-04-07T11:25:45.279Z,96518.59
2023-04-07T11:26:47.961Z,96522.41
2023-04-07T11:27:51.002Z,96514.59
2023-04-07T11:28:55.152Z,96521.50
2023-04-07T11:29:57.501Z,96523.09
2023-04-07T11:31:00.114Z,96526.06
2023-04-07T11:32:02.722Z,96520.16
2023-04-07T11:33:04.678Z,96514.66
2023-04-07T11:34:06.334Z,96521.34
2023-04-07T11:35:14.001Z,96516.34
2023-04-07T11:36:27.194Z,96520.16
2023-04-07T11:37:29.135Z,96511.91
2023-04-07T11:38:36.489Z,96508.09
2023-04-07T11:39:38.629Z,96509.56
2023-04-07T11:40:40.334Z,96513.31
2023-04-07T11:41:47.313Z,96504.91
2023-04-07T11:42:48.872Z,96505.16
2023-04-07T11:44:04.429Z,96505.41
2023-04-07T11:45:16.462Z,96507.88
2023-04-07T11:46:19.293Z,96507.19
2023-04-07T11:47:21.570Z,96500.22
2023-04-07T11:48:30.683Z,96503.13
2023-04-07T11:49:32.496Z,96494.91
2023-04-07T11:50:42.613Z,96496.78
2023-04-07T11:51:45.009Z,96499.59
2023-04-07T11:52:48.456Z,96493.47
2023-04-07T11:53:56.958Z,96496.56
2023-04-07T11:55:00.287Z,96492.44
2023-04-07T11:56:07.734Z,96485.22
2023-04-07T11:57:12.453Z,96488.28
2023-04-07T11:58:14.516Z,96495.75
2023-04-07T11:59:20.717Z,96494.75
2023-04-07T12:00:22.443Z,96492.63
2023-04-07T12:01:27.158Z,96495.75
2023-04-07T12:02:35.088Z,96488.16
2023-04-07T12:03:37.953Z,96485.94
2023-04-07T12:04:56.003Z,96482.84
2023-04-07T12:05:57.692Z,96487.03
2023-04-07T12:07:17.139Z,96488.47
2023-04-07T12:08:19.701Z,96479.72
2023-04-07T12:09:32.405Z,96480.50
2023-04-07T12:10:35.176Z,96480.34
2023-04-07T12:11:37.329Z,96481.06
2023-04-07T12:12:39.623Z,96485.91
2023-04-07T12:13:41.488Z,96474.56
2023-04-07T12:14:43.115Z,96477.63
2023-04-07T12:15:44.692Z,96482.97
2023-04-07T12:16:46.321Z,96476.31
2023-04-07T12:17:49.440Z,96482.19
2023-04-07T12:18:51.692Z,96484.22
2023-04-07T12:19:53.791Z,96473.44
2023-04-07T12:20:56.558Z,96481.41
2023-04-07T12:21:58.331Z,96476.00
2023-04-07T12:23:00.564Z,96475.63
2023-04-07T12:24:02.454Z,96473.50
2023-04-07T12:25:04.181Z,96473.38
2023-04-07T12:26:06.395Z,96469.84